Time,TemperatureF,DewpointF,PressureIn,WindDirection,WindDirectionDegrees,WindSpeedMPH,WindSpeedGustMPH,Humidity,HourlyPrecipIn,Conditions,Clouds,dailyrainin,SoftwareType,DateUTC
2013-03-10 00:12:00,42.6,34.9,29.94,SW,225,0.0,-999.0,74,-99.99,,,0.00,Acu-Link.com,2013-03-10 05:12:00,
2013-03-10 00:27:00,42.3,35.3,29.94,ESE,112,0.0,-999.0,76,-99.99,,,0.00,Acu-Link.com,2013-03-10 05:27:00,
2013-03-10 00:42:00,42.4,35.0,29.94,ESE,112,0.0,-999.0,75,-99.99,,,0.00,Acu-Link.com,2013-03-10 05:42:00,
2013-03-10 00:57:00,42.4,35.7,29.94,ESE,112,0.0,-999.0,77,-99.99,,,0.00,Acu-Link.com,2013-03-10 05:57:00,
2013-03-10 01:13:00,42.6,36.6,29.93,ESE,112,0.0,-999.0,79,-99.99,,,0.00,Acu-Link.com,2013-03-10 06:13:00,
2013-03-10 01:28:00,42.8,36.7,29.93,ESE,112,0.0,-999.0,79,-99.99,,,0.00,Acu-Link.com,2013-03-10 06:28:00,
2013-03-10 01:43:00,42.8,37.1,29.92,ESE,112,0.0,-999.0,80,-99.99,,,0.00,Acu-Link.com,2013-03-10 06:43:00,
2013-03-10 01:59:00,42.4,36.7,29.92,ESE,112,0.0,-999.0,80,-99.99,,,0.00,Acu-Link.com,2013-03-10 06:59:00,
2013-03-10 03:14:00,42.4,37.0,29.91,ESE,112,0.0,-999.0,81,-99.99,,,0.00,Acu-Link.com,2013-03-10 07:14:00,
2013-03-10 03:29:00,42.4,37.3,29.91,ESE,112,0.0,-999.0,82,-99.99,,,0.00,Acu-Link.com,2013-03-10 07:29:00,
2013-03-10 03:44:00,42.1,36.7,29.91,ENE,67,0.0,-999.0,81,-99.99,,,0.00,Acu-Link.com,2013-03-10 07:44:00,
2013-03-10 04:00:00,42.1,37.0,29.89,NNW,337,0.0,-999.0,82,-99.99,,,0.00,Acu-Link.com,2013-03-10 08:00:00,
2013-03-10 04:15:00,41.5,36.4,29.88,NE,45,0.0,-999.0,82,-99.99,,,0.00,Acu-Link.com,2013-03-10 08:15:00,
2013-03-10 04:30:00,40.6,35.8,29.89,South,180,0.0,-999.0,83,-99.99,,,0.00,Acu-Link.com,2013-03-10 08:30:00,
2013-03-10 04:45:00,39.7,35.6,29.89,NE,45,0.0,-999.0,85,-99.99,,,0.00,Acu-Link.com,2013-03-10 08:45:00,
2013-03-10 05:00:00,39.6,35.5,29.90,ENE,67,0.0,-999.0,85,-99.99,,,0.00,Acu-Link.com,2013-03-10 09:00:00,
2013-03-10 05:15:00,39.2,35.7,29.89,WNW,292,0.0,-999.0,87,-99.99,,,0.00,Acu-Link.com,2013-03-10 09:15:00,
2013-03-10 05:31:00,38.5,35.5,29.89,NE,45,0.0,-999.0,89,-99.99,,,0.00,Acu-Link.com,2013-03-10 09:31:00,
2013-03-10 05:46:00,38.3,35.3,29.89,North,0,0.0,-999.0,89,-99.99,,,0.00,Acu-Link.com,2013-03-10 09:46:00,
2013-03-10 06:01:00,38.1,35.4,29.90,SSE,157,0.0,-999.0,90,-99.99,,,0.00,Acu-Link.com,2013-03-10 10:01:00,
2013-03-10 06:16:00,37.9,35.2,29.90,North,0,0.0,-999.0,90,-99.99,,,0.00,Acu-Link.com,2013-03-10 10:16:00,
2013-03-10 06:32:00,37.8,35.1,29.90,WSW,247,0.0,-999.0,90,-99.99,,,0.00,Acu-Link.com,2013-03-10 10:32:00,
2013-03-10 06:47:00,37.8,35.4,29.89,SW,225,0.0,-999.0,91,-99.99,,,0.00,Acu-Link.com,2013-03-10 10:47:00,
2013-03-10 07:02:00,37.8,35.7,29.89,ESE,112,0.0,-999.0,92,-99.99,,,0.00,Acu-Link.com,2013-03-10 11:02:00,
2013-03-10 07:17:00,38.1,35.4,29.90,SSE,157,0.0,-999.0,90,-99.99,,,0.00,Acu-Link.com,2013-03-10 11:17:00,
2013-03-10 07:33:00,38.1,35.7,29.91,West,270,0.0,-999.0,91,-99.99,,,0.00,Acu-Link.com,2013-03-10 11:33:00,
2013-03-10 07:48:00,38.5,35.8,29.91,NW,315,0.0,-999.0,90,-99.99,,,0.00,Acu-Link.com,2013-03-10 11:48:00,
2013-03-10 08:03:00,39.0,38.0,29.91,WSW,247,0.0,-999.0,96,-99.99,,,0.00,Acu-Link.com,2013-03-10 12:03:00,
2013-03-10 08:18:00,39.2,36.8,29.92,North,0,0.0,-999.0,91,-99.99,,,0.00,Acu-Link.com,2013-03-10 12:18:00,
2013-03-10 08:33:00,40.5,37.5,29.92,NNE,22,0.0,-999.0,89,-99.99,,,0.00,Acu-Link.com,2013-03-10 12:33:00,
2013-03-10 08:49:00,41.7,38.4,29.92,NNE,22,0.0,-999.0,88,-99.99,,,0.00,Acu-Link.com,2013-03-10 12:49:00,
2013-03-10 09:04:00,43.3,38.8,29.92,ESE,112,0.0,-999.0,84,-99.99,,,0.00,Acu-Link.com,2013-03-10 13:04:00,
2013-03-10 09:19:00,45.7,39.2,29.92,ESE,112,0.0,-999.0,78,-99.99,,,0.00,Acu-Link.com,2013-03-10 13:19:00,
2013-03-10 09:35:00,49.3,41.0,29.91,NE,45,1.7,-999.0,73,-99.99,,,0.00,Acu-Link.com,2013-03-10 13:35:00,
2013-03-10 09:56:00,52.0,39.0,29.92,North,0,3.2,-999.0,61,-99.99,,,0.00,Acu-Link.com,2013-03-10 13:56:00,
2013-03-10 10:14:00,52.0,39.0,29.91,NNE,22,4.2,-999.0,61,-99.99,,,0.00,Acu-Link.com,2013-03-10 14:14:00,
2013-03-10 10:37:00,57.2,39.2,29.92,ESE,112,3.7,-999.0,51,-99.99,,,0.00,Acu-Link.com,2013-03-10 14:37:00,
2013-03-10 10:55:00,57.9,37.2,29.91,NNE,22,2.2,-999.0,46,-99.99,,,0.00,Acu-Link.com,2013-03-10 14:55:00,
2013-03-10 11:10:00,59.2,37.3,29.90,NE,45,4.2,-999.0,44,-99.99,,,0.00,Acu-Link.com,2013-03-10 15:10:00,
2013-03-10 11:25:00,63.5,36.1,29.89,East,90,0.0,-999.0,36,-99.99,,,0.00,Acu-Link.com,2013-03-10 15:25:00,
2013-03-10 11:41:00,62.2,36.9,29.89,SSE,157,2.7,-999.0,39,-99.99,,,0.00,Acu-Link.com,2013-03-10 15:41:00,
2013-03-10 11:56:00,62.8,36.8,29.90,NE,45,0.0,-999.0,38,-99.99,,,0.00,Acu-Link.com,2013-03-10 15:56:00,
2013-03-10 12:11:00,63.3,35.9,29.89,East,90,0.0,-999.0,36,-99.99,,,0.00,Acu-Link.com,2013-03-10 16:11:00,
2013-03-10 12:27:00,62.6,37.3,29.88,ENE,67,2.2,-999.0,39,-99.99,,,0.00,Acu-Link.com,2013-03-10 16:27:00,
2013-03-10 12:42:00,67.6,36.7,29.87,NNE,22,3.2,-999.0,32,-99.99,,,0.00,Acu-Link.com,2013-03-10 16:42:00,
2013-03-10 12:58:00,72.3,36.4,29.86,NE,45,3.7,-999.0,27,-99.99,,,0.00,Acu-Link.com,2013-03-10 16:58:00,
2013-03-10 13:13:00,71.1,35.4,29.86,SSE,157,1.1,-999.0,27,-99.99,,,0.00,Acu-Link.com,2013-03-10 17:13:00,
2013-03-10 13:29:00,74.3,34.1,29.86,North,0,3.7,-999.0,23,-99.99,,,0.00,Acu-Link.com,2013-03-10 17:29:00,
2013-03-10 13:44:00,76.5,31.2,29.85,NNE,22,2.7,-999.0,19,-99.99,,,0.00,Acu-Link.com,2013-03-10 17:44:00,
2013-03-10 13:59:00,75.9,30.7,29.85,North,0,1.7,-999.0,19,-99.99,,,0.00,Acu-Link.com,2013-03-10 17:59:00,
2013-03-10 14:14:00,77.5,29.2,29.84,SW,225,2.7,-999.0,17,-99.99,,,0.00,Acu-Link.com,2013-03-10 18:14:00,
2013-03-10 14:30:00,77.5,27.8,29.83,NNE,22,2.2,-999.0,16,-99.99,,,0.00,Acu-Link.com,2013-03-10 18:30:00,
2013-03-10 14:45:00,75.4,30.3,29.82,SSE,157,3.2,-999.0,19,-99.99,,,0.00,Acu-Link.com,2013-03-10 18:45:00,
2013-03-10 15:00:00,76.6,32.5,29.82,WNW,292,3.2,-999.0,20,-99.99,,,0.00,Acu-Link.com,2013-03-10 19:00:00,
2013-03-10 15:16:00,76.3,32.3,29.81,West,270,1.7,-999.0,20,-99.99,,,0.00,Acu-Link.com,2013-03-10 19:16:00,
2013-03-10 15:31:00,75.6,31.7,29.80,NNW,337,2.7,-999.0,20,-99.99,,,0.00,Acu-Link.com,2013-03-10 19:31:00,
2013-03-10 16:17:00,76.3,25.3,29.79,NE,45,0.0,-999.0,15,-99.99,,,0.00,Acu-Link.com,2013-03-10 20:17:00,
2013-03-10 16:32:00,75.6,27.7,29.78,WNW,292,3.2,-999.0,17,-99.99,,,0.00,Acu-Link.com,2013-03-10 20:32:00,
2013-03-10 16:47:00,77.0,25.8,29.78,NNW,337,3.7,-999.0,15,-99.99,,,0.00,Acu-Link.com,2013-03-10 20:47:00,
2013-03-10 17:03:00,75.4,28.9,29.78,SSE,157,3.7,-999.0,18,-99.99,,,0.00,Acu-Link.com,2013-03-10 21:03:00,
2013-03-10 17:18:00,76.8,24.0,29.78,West,270,2.2,-999.0,14,-99.99,,,0.00,Acu-Link.com,2013-03-10 21:18:00,
2013-03-10 17:33:00,78.3,23.4,29.77,NNE,22,1.7,-999.0,13,-99.99,,,0.00,Acu-Link.com,2013-03-10 21:33:00,
2013-03-10 17:49:00,75.6,27.7,29.78,West,270,0.0,-999.0,17,-99.99,,,0.00,Acu-Link.com,2013-03-10 21:49:00,
2013-03-10 18:04:00,75.2,30.1,29.77,East,90,2.7,-999.0,19,-99.99,,,0.00,Acu-Link.com,2013-03-10 22:04:00,
2013-03-10 18:19:00,72.7,33.8,29.76,East,90,1.7,-999.0,24,-99.99,,,0.00,Acu-Link.com,2013-03-10 22:19:00,
2013-03-10 18:34:00,71.1,36.3,29.76,East,90,0.0,-999.0,28,-99.99,,,0.00,Acu-Link.com,2013-03-10 22:34:00,
2013-03-10 18:50:00,69.3,34.8,29.77,SE,135,0.0,-999.0,28,-99.99,,,0.00,Acu-Link.com,2013-03-10 22:50:00,
2013-03-10 19:05:00,68.2,34.7,29.76,SSE,157,2.7,-999.0,29,-99.99,,,0.00,Acu-Link.com,2013-03-10 23:05:00,
2013-03-10 19:20:00,68.4,28.1,29.77,SE,135,3.7,-999.0,22,-99.99,,,0.00,Acu-Link.com,2013-03-10 23:20:00,
2013-03-10 19:35:00,68.4,24.5,29.76,SE,135,6.8,-999.0,19,-99.99,,,0.00,Acu-Link.com,2013-03-10 23:35:00,
2013-03-10 19:51:00,67.6,25.1,29.76,SSE,157,5.8,-999.0,20,-99.99,,,0.00,Acu-Link.com,2013-03-10 23:51:00,
2013-03-10 20:06:00,66.9,25.7,29.76,SE,135,2.7,-999.0,21,-99.99,,,0.00,Acu-Link.com,2013-03-11 00:06:00,
2013-03-10 20:21:00,65.7,26.9,29.76,SSE,157,1.1,-999.0,23,-99.99,,,0.00,Acu-Link.com,2013-03-11 00:21:00,
2013-03-10 20:37:00,65.1,27.4,29.76,SE,135,2.2,-999.0,24,-99.99,,,0.00,Acu-Link.com,2013-03-11 00:37:00,
2013-03-10 21:07:00,63.1,26.7,29.76,South,180,2.7,-999.0,25,-99.99,,,0.00,Acu-Link.com,2013-03-11 01:07:00,
2013-03-10 21:22:00,63.5,27.1,29.73,ESE,112,2.7,-999.0,25,-99.99,,,0.00,Acu-Link.com,2013-03-11 01:22:00,
2013-03-10 21:38:00,64.0,26.5,29.74,SSW,202,6.8,-999.0,24,-99.99,,,0.00,Acu-Link.com,2013-03-11 01:38:00,
2013-03-10 21:53:00,64.0,27.5,29.75,SSE,157,3.7,-999.0,25,-99.99,,,0.00,Acu-Link.com,2013-03-11 01:53:00,
2013-03-10 22:08:00,63.0,28.5,29.74,South,180,3.7,-999.0,27,-99.99,,,0.00,Acu-Link.com,2013-03-11 02:08:00,
2013-03-10 22:23:00,62.6,29.0,29.75,South,180,2.7,-999.0,28,-99.99,,,0.00,Acu-Link.com,2013-03-11 02:23:00,
2013-03-10 22:39:00,61.7,30.0,29.75,SSW,202,2.2,-999.0,30,-99.99,,,0.00,Acu-Link.com,2013-03-11 02:39:00,
2013-03-10 22:54:00,60.4,30.4,29.76,SW,225,1.7,-999.0,32,-99.99,,,0.00,Acu-Link.com,2013-03-11 02:54:00,
2013-03-10 23:09:00,61.2,32.6,29.76,SSW,202,2.2,-999.0,34,-99.99,,,0.00,Acu-Link.com,2013-03-11 03:09:00,
2013-03-10 23:25:00,60.8,33.0,29.74,South,180,3.2,-999.0,35,-99.99,,,0.00,Acu-Link.com,2013-03-11 03:25:00,
2013-03-10 23:40:00,60.6,34.9,29.75,South,180,4.2,-999.0,38,-99.99,,,0.00,Acu-Link.com,2013-03-11 03:40:00,
2013-03-10 23:55:00,59.9,34.2,29.76,SW,225,4.7,-999.0,38,-99.99,,,0.00,Acu-Link.com,2013-03-11 03:55:00,